sensor_id;sensor_type;location;lat;lon;timestamp;temperature;humidity
21522;DHT22;10922;45.572;10.002;2023-05-24T00:01:05;20.10;99.90
21522;DHT22;10922;45.572;10.002;2023-05-24T00:03:31;20.10;99.90
21522;DHT22;10922;45.572;10.002;2023-05-24T00:06:01;20.10;99.90
21522;DHT22;10922;45.572;10.002;2023-05-24T00:08:28;20.00;99.90
21522;DHT22;10922;45.572;10.002;2023-05-24T00:10:53;20.00;99.90
21522;DHT22;10922;45.572;10.002;2023-05-24T00:13:19;19.90;99.90
21522;DHT22;10922;45.572;10.002;2023-05-24T00:15:44;19.90;99.90
21522;DHT22;10922;45.572;10.002;2023-05-24T00:18:10;19.80;99.90
21522;DHT22;10922;45.572;10.002;2023-05-24T00:20:35;19.80;99.90
21522;DHT22;10922;45.572;10.002;2023-05-24T00:23:01;19.80;99.90
21522;DHT22;10922;45.572;10.002;2023-05-24T00:25:26;19.80;99.90
21522;DHT22;10922;45.572;10.002;2023-05-24T00:27:52;19.70;99.90
21522;DHT22;10922;45.572;10.002;2023-05-24T00:30:17;19.80;99.90
21522;DHT22;10922;45.572;10.002;2023-05-24T00:32:43;19.80;99.90
21522;DHT22;10922;45.572;10.002;2023-05-24T00:35:09;19.70;99.90
21522;DHT22;10922;45.572;10.002;2023-05-24T00:37:34;19.80;99.90
21522;DHT22;10922;45.572;10.002;2023-05-24T00:40:01;19.70;99.90
21522;DHT22;10922;45.572;10.002;2023-05-24T00:42:28;19.70;99.90
21522;DHT22;10922;45.572;10.002;2023-05-24T00:44:54;19.70;99.90
21522;DHT22;10922;45.572;10.002;2023-05-24T00:47:19;19.60;99.90
21522;DHT22;10922;45.572;10.002;2023-05-24T00:49:45;19.60;99.90
21522;DHT22;10922;45.572;10.002;2023-05-24T00:52:11;19.60;99.90
21522;DHT22;10922;45.572;10.002;2023-05-24T00:54:36;19.60;99.90
21522;DHT22;10922;45.572;10.002;2023-05-24T00:57:05;19.60;99.90
21522;DHT22;10922;45.572;10.002;2023-05-24T00:59:30;19.50;99.90
21522;DHT22;10922;45.572;10.002;2023-05-24T01:01:57;19.50;99.90
21522;DHT22;10922;45.572;10.002;2023-05-24T01:04:22;19.50;99.90
21522;DHT22;10922;45.572;10.002;2023-05-24T01:12:17;19.50;99.90
21522;DHT22;10922;45.572;10.002;2023-05-24T01:14:59;19.40;99.90
21522;DHT22;10922;45.572;10.002;2023-05-24T01:17:30;19.40;99.90
21522;DHT22;10922;45.572;10.002;2023-05-24T01:19:59;19.40;99.90
21522;DHT22;10922;45.572;10.002;2023-05-24T01:25:02;19.30;99.90
21522;DHT22;10922;45.572;10.002;2023-05-24T01:27:30;19.30;99.90
21522;DHT22;10922;45.572;10.002;2023-05-24T01:29:57;19.30;99.90
21522;DHT22;10922;45.572;10.002;2023-05-24T01:32:23;19.30;99.90
21522;DHT22;10922;45.572;10.002;2023-05-24T01:34:49;19.30;99.90
21522;DHT22;10922;45.572;10.002;2023-05-24T01:37:14;19.30;99.90
21522;DHT22;10922;45.572;10.002;2023-05-24T01:39:40;19.30;99.90
21522;DHT22;10922;45.572;10.002;2023-05-24T01:42:08;19.30;99.90
21522;DHT22;10922;45.572;10.002;2023-05-24T01:44:40;19.30;99.90
21522;DHT22;10922;45.572;10.002;2023-05-24T01:49:33;19.20;99.90
21522;DHT22;10922;45.572;10.002;2023-05-24T01:52:02;19.30;99.90
21522;DHT22;10922;45.572;10.002;2023-05-24T01:54:30;19.30;99.90
21522;DHT22;10922;45.572;10.002;2023-05-24T01:56:56;19.30;99.90
21522;DHT22;10922;45.572;10.002;2023-05-24T01:59:21;19.20;99.90
21522;DHT22;10922;45.572;10.002;2023-05-24T02:01:48;19.20;99.90
21522;DHT22;10922;45.572;10.002;2023-05-24T02:04:13;19.30;99.90
21522;DHT22;10922;45.572;10.002;2023-05-24T02:06:39;19.20;99.90
21522;DHT22;10922;45.572;10.002;2023-05-24T02:09:04;19.20;99.90
21522;DHT22;10922;45.572;10.002;2023-05-24T02:11:30;19.20;99.90
21522;DHT22;10922;45.572;10.002;2023-05-24T02:13:55;19.20;99.90
21522;DHT22;10922;45.572;10.002;2023-05-24T02:16:21;19.30;99.90
21522;DHT22;10922;45.572;10.002;2023-05-24T02:18:48;19.30;99.90
21522;DHT22;10922;45.572;10.002;2023-05-24T02:21:14;19.30;99.90
21522;DHT22;10922;45.572;10.002;2023-05-24T02:23:40;19.20;99.90
21522;DHT22;10922;45.572;10.002;2023-05-24T02:26:06;19.20;99.90
21522;DHT22;10922;45.572;10.002;2023-05-24T02:28:31;19.20;99.90
21522;DHT22;10922;45.572;10.002;2023-05-24T02:30:57;19.10;99.90
21522;DHT22;10922;45.572;10.002;2023-05-24T02:33:22;19.00;99.90
21522;DHT22;10922;45.572;10.002;2023-05-24T02:35:51;19.00;99.90
21522;DHT22;10922;45.572;10.002;2023-05-24T02:38:16;19.20;99.90
21522;DHT22;10922;45.572;10.002;2023-05-24T02:40:42;19.20;99.90
21522;DHT22;10922;45.572;10.002;2023-05-24T02:43:07;19.20;99.90
21522;DHT22;10922;45.572;10.002;2023-05-24T02:45:34;19.20;99.90
21522;DHT22;10922;45.572;10.002;2023-05-24T02:48:01;19.20;99.90
21522;DHT22;10922;45.572;10.002;2023-05-24T02:50:26;19.20;99.90
21522;DHT22;10922;45.572;10.002;2023-05-24T02:52:52;19.20;99.90
21522;DHT22;10922;45.572;10.002;2023-05-24T02:55:17;19.30;99.90
21522;DHT22;10922;45.572;10.002;2023-05-24T02:57:48;19.20;99.90
21522;DHT22;10922;45.572;10.002;2023-05-24T03:00:14;19.20;99.90
21522;DHT22;10922;45.572;10.002;2023-05-24T03:02:40;19.20;99.90
21522;DHT22;10922;45.572;10.002;2023-05-24T03:05:06;19.20;99.90
21522;DHT22;10922;45.572;10.002;2023-05-24T03:07:31;19.20;99.90
21522;DHT22;10922;45.572;10.002;2023-05-24T03:09:57;19.20;99.90
21522;DHT22;10922;45.572;10.002;2023-05-24T03:12:22;19.10;99.90
21522;DHT22;10922;45.572;10.002;2023-05-24T03:14:48;19.10;99.90
21522;DHT22;10922;45.572;10.002;2023-05-24T03:17:13;19.00;99.90
21522;DHT22;10922;45.572;10.002;2023-05-24T03:19:39;19.00;99.90
21522;DHT22;10922;45.572;10.002;2023-05-24T03:22:05;19.00;99.90
21522;DHT22;10922;45.572;10.002;2023-05-24T03:24:30;18.90;99.90
21522;DHT22;10922;45.572;10.002;2023-05-24T03:26:57;18.80;99.90
21522;DHT22;10922;45.572;10.002;2023-05-24T03:29:23;18.80;99.90
21522;DHT22;10922;45.572;10.002;2023-05-24T03:31:48;18.70;99.90
21522;DHT22;10922;45.572;10.002;2023-05-24T03:34:14;18.70;99.90
21522;DHT22;10922;45.572;10.002;2023-05-24T03:36:39;18.70;99.90
21522;DHT22;10922;45.572;10.002;2023-05-24T03:39:06;18.60;99.90
21522;DHT22;10922;45.572;10.002;2023-05-24T03:41:32;18.60;99.90
21522;DHT22;10922;45.572;10.002;2023-05-24T03:43:58;18.60;99.90
21522;DHT22;10922;45.572;10.002;2023-05-24T03:46:23;18.50;99.90
21522;DHT22;10922;45.572;10.002;2023-05-24T03:48:49;18.50;99.90
21522;DHT22;10922;45.572;10.002;2023-05-24T03:51:14;18.40;99.90
21522;DHT22;10922;45.572;10.002;2023-05-24T03:53:40;18.50;99.90
21522;DHT22;10922;45.572;10.002;2023-05-24T03:56:05;18.50;99.90
21522;DHT22;10922;45.572;10.002;2023-05-24T03:58:31;18.50;99.90
21522;DHT22;10922;45.572;10.002;2023-05-24T04:00:56;18.60;99.90
21522;DHT22;10922;45.572;10.002;2023-05-24T04:03:22;18.60;99.90
21522;DHT22;10922;45.572;10.002;2023-05-24T04:05:50;18.50;99.90
21522;DHT22;10922;45.572;10.002;2023-05-24T04:08:15;18.60;99.90
21522;DHT22;10922;45.572;10.002;2023-05-24T04:10:41;18.50;99.90
21522;DHT22;10922;45.572;10.002;2023-05-24T04:13:07;18.50;99.90
21522;DHT22;10922;45.572;10.002;2023-05-24T04:15:32;18.50;99.90
21522;DHT22;10922;45.572;10.002;2023-05-24T04:17:58;18.50;99.90
21522;DHT22;10922;45.572;10.002;2023-05-24T04:20:24;18.50;99.90
21522;DHT22;10922;45.572;10.002;2023-05-24T04:22:52;18.60;99.90
21522;DHT22;10922;45.572;10.002;2023-05-24T04:25:17;18.60;99.90
21522;DHT22;10922;45.572;10.002;2023-05-24T04:27:43;18.70;99.90
21522;DHT22;10922;45.572;10.002;2023-05-24T04:30:09;18.70;99.90
21522;DHT22;10922;45.572;10.002;2023-05-24T04:32:35;18.70;99.90
21522;DHT22;10922;45.572;10.002;2023-05-24T04:35:01;18.80;99.90
21522;DHT22;10922;45.572;10.002;2023-05-24T04:37:29;18.90;99.90
21522;DHT22;10922;45.572;10.002;2023-05-24T04:39:56;18.90;99.90
21522;DHT22;10922;45.572;10.002;2023-05-24T04:42:21;18.90;99.90
21522;DHT22;10922;45.572;10.002;2023-05-24T04:44:47;19.00;99.90
21522;DHT22;10922;45.572;10.002;2023-05-24T04:47:13;19.00;99.90
21522;DHT22;10922;45.572;10.002;2023-05-24T04:49:38;19.10;99.90
21522;DHT22;10922;45.572;10.002;2023-05-24T04:52:04;19.10;99.90
21522;DHT22;10922;45.572;10.002;2023-05-24T04:54:30;19.20;99.90
21522;DHT22;10922;45.572;10.002;2023-05-24T04:56:56;19.30;99.90
21522;DHT22;10922;45.572;10.002;2023-05-24T04:59:21;19.30;99.90
21522;DHT22;10922;45.572;10.002;2023-05-24T05:01:47;19.40;99.90
21522;DHT22;10922;45.572;10.002;2023-05-24T05:04:12;19.40;99.90
21522;DHT22;10922;45.572;10.002;2023-05-24T05:06:38;19.50;99.90
21522;DHT22;10922;45.572;10.002;2023-05-24T05:09:07;19.50;99.90
21522;DHT22;10922;45.572;10.002;2023-05-24T05:11:39;19.40;99.90
21522;DHT22;10922;45.572;10.002;2023-05-24T05:14:04;19.50;99.90
21522;DHT22;10922;45.572;10.002;2023-05-24T05:16:30;19.60;99.90
21522;DHT22;10922;45.572;10.002;2023-05-24T05:18:57;19.60;99.90
21522;DHT22;10922;45.572;10.002;2023-05-24T05:21:22;19.60;99.90
21522;DHT22;10922;45.572;10.002;2023-05-24T05:23:48;19.70;99.90
21522;DHT22;10922;45.572;10.002;2023-05-24T05:26:14;19.80;99.90
21522;DHT22;10922;45.572;10.002;2023-05-24T05:28:39;19.90;99.90
21522;DHT22;10922;45.572;10.002;2023-05-24T05:31:05;20.00;99.90
21522;DHT22;10922;45.572;10.002;2023-05-24T05:33:30;20.10;99.90
21522;DHT22;10922;45.572;10.002;2023-05-24T05:35:56;20.20;99.90
21522;DHT22;10922;45.572;10.002;2023-05-24T05:38:22;20.20;99.90
21522;DHT22;10922;45.572;10.002;2023-05-24T05:40:47;20.10;99.90
21522;DHT22;10922;45.572;10.002;2023-05-24T05:43:13;20.10;99.90
21522;DHT22;10922;45.572;10.002;2023-05-24T05:45:38;20.10;99.90
21522;DHT22;10922;45.572;10.002;2023-05-24T05:48:04;20.00;99.90
21522;DHT22;10922;45.572;10.002;2023-05-24T05:50:30;20.00;99.90
21522;DHT22;10922;45.572;10.002;2023-05-24T05:52:55;20.00;99.90
21522;DHT22;10922;45.572;10.002;2023-05-24T05:55:22;20.10;99.90
21522;DHT22;10922;45.572;10.002;2023-05-24T05:57:48;20.10;99.90
21522;DHT22;10922;45.572;10.002;2023-05-24T06:00:13;20.10;99.90
21522;DHT22;10922;45.572;10.002;2023-05-24T06:02:39;20.20;99.90
21522;DHT22;10922;45.572;10.002;2023-05-24T06:05:04;20.30;99.90
21522;DHT22;10922;45.572;10.002;2023-05-24T06:07:30;20.40;99.90
21522;DHT22;10922;45.572;10.002;2023-05-24T06:09:56;20.50;99.90
21522;DHT22;10922;45.572;10.002;2023-05-24T06:12:21;20.70;99.90
21522;DHT22;10922;45.572;10.002;2023-05-24T06:14:47;20.80;99.90
21522;DHT22;10922;45.572;10.002;2023-05-24T06:17:15;20.90;99.90
21522;DHT22;10922;45.572;10.002;2023-05-24T06:19:40;21.00;99.90
21522;DHT22;10922;45.572;10.002;2023-05-24T06:22:07;21.20;99.90
21522;DHT22;10922;45.572;10.002;2023-05-24T06:24:33;21.20;99.90
21522;DHT22;10922;45.572;10.002;2023-05-24T06:26:59;21.20;99.90
21522;DHT22;10922;45.572;10.002;2023-05-24T06:29:24;21.30;99.90
21522;DHT22;10922;45.572;10.002;2023-05-24T06:31:50;21.30;99.90
21522;DHT22;10922;45.572;10.002;2023-05-24T06:34:16;21.40;99.90
21522;DHT22;10922;45.572;10.002;2023-05-24T06:36:42;21.60;99.90
21522;DHT22;10922;45.572;10.002;2023-05-24T06:39:10;21.50;99.90
21522;DHT22;10922;45.572;10.002;2023-05-24T06:41:35;21.70;99.90
21522;DHT22;10922;45.572;10.002;2023-05-24T06:44:01;21.90;99.90
21522;DHT22;10922;45.572;10.002;2023-05-24T06:46:27;22.00;99.90
21522;DHT22;10922;45.572;10.002;2023-05-24T06:48:53;22.10;99.90
21522;DHT22;10922;45.572;10.002;2023-05-24T06:51:18;22.10;99.90
21522;DHT22;10922;45.572;10.002;2023-05-24T06:53:44;22.20;99.90
21522;DHT22;10922;45.572;10.002;2023-05-24T06:56:09;22.30;99.90
21522;DHT22;10922;45.572;10.002;2023-05-24T06:58:35;22.50;99.90
21522;DHT22;10922;45.572;10.002;2023-05-24T07:01:01;22.60;99.90
21522;DHT22;10922;45.572;10.002;2023-05-24T07:03:26;22.70;99.90
21522;DHT22;10922;45.572;10.002;2023-05-24T07:05:52;22.80;99.90
21522;DHT22;10922;45.572;10.002;2023-05-24T07:08:18;22.90;99.90
21522;DHT22;10922;45.572;10.002;2023-05-24T07:10:43;22.90;99.90
21522;DHT22;10922;45.572;10.002;2023-05-24T07:13:09;23.10;99.90
21522;DHT22;10922;45.572;10.002;2023-05-24T07:15:39;23.20;99.90
21522;DHT22;10922;45.572;10.002;2023-05-24T07:18:05;23.20;99.90
21522;DHT22;10922;45.572;10.002;2023-05-24T07:20:31;23.30;99.90
21522;DHT22;10922;45.572;10.002;2023-05-24T07:22:56;23.30;99.90
21522;DHT22;10922;45.572;10.002;2023-05-24T07:25:22;23.40;99.90
21522;DHT22;10922;45.572;10.002;2023-05-24T07:27:49;23.60;99.90
21522;DHT22;10922;45.572;10.002;2023-05-24T07:30:14;23.70;99.90
21522;DHT22;10922;45.572;10.002;2023-05-24T07:32:40;23.80;99.90
21522;DHT22;10922;45.572;10.002;2023-05-24T07:35:06;23.80;99.90
21522;DHT22;10922;45.572;10.002;2023-05-24T07:37:32;24.10;99.90
21522;DHT22;10922;45.572;10.002;2023-05-24T07:39:57;24.30;99.90
21522;DHT22;10922;45.572;10.002;2023-05-24T07:42:23;24.40;99.90
21522;DHT22;10922;45.572;10.002;2023-05-24T07:44:48;24.40;99.90
21522;DHT22;10922;45.572;10.002;2023-05-24T07:47:14;24.20;99.90
21522;DHT22;10922;45.572;10.002;2023-05-24T07:49:40;24.50;99.90
21522;DHT22;10922;45.572;10.002;2023-05-24T07:52:06;24.50;99.90
21522;DHT22;10922;45.572;10.002;2023-05-24T07:54:31;24.60;99.90
21522;DHT22;10922;45.572;10.002;2023-05-24T07:56:57;24.90;99.90
21522;DHT22;10922;45.572;10.002;2023-05-24T07:59:22;25.00;99.90
21522;DHT22;10922;45.572;10.002;2023-05-24T08:01:48;24.90;99.90
21522;DHT22;10922;45.572;10.002;2023-05-24T08:04:13;25.00;99.90
21522;DHT22;10922;45.572;10.002;2023-05-24T08:06:39;24.60;99.90
21522;DHT22;10922;45.572;10.002;2023-05-24T08:09:04;24.70;99.90
21522;DHT22;10922;45.572;10.002;2023-05-24T08:11:31;24.90;99.90
21522;DHT22;10922;45.572;10.002;2023-05-24T08:13:57;24.90;99.90
21522;DHT22;10922;45.572;10.002;2023-05-24T08:16:22;25.00;99.90
21522;DHT22;10922;45.572;10.002;2023-05-24T08:18:48;25.20;99.90
21522;DHT22;10922;45.572;10.002;2023-05-24T08:21:14;25.10;99.90
21522;DHT22;10922;45.572;10.002;2023-05-24T08:23:39;25.20;99.90
21522;DHT22;10922;45.572;10.002;2023-05-24T08:26:05;25.20;99.90
21522;DHT22;10922;45.572;10.002;2023-05-24T08:28:31;25.20;99.90
21522;DHT22;10922;45.572;10.002;2023-05-24T08:30:57;25.30;99.90
21522;DHT22;10922;45.572;10.002;2023-05-24T08:33:23;25.30;99.90
21522;DHT22;10922;45.572;10.002;2023-05-24T08:35:49;25.40;99.90
21522;DHT22;10922;45.572;10.002;2023-05-24T08:38:15;25.40;99.90
21522;DHT22;10922;45.572;10.002;2023-05-24T08:40:41;25.70;99.90
21522;DHT22;10922;45.572;10.002;2023-05-24T08:43:06;25.90;99.90
21522;DHT22;10922;45.572;10.002;2023-05-24T08:45:36;25.70;99.90
21522;DHT22;10922;45.572;10.002;2023-05-24T08:48:02;25.80;99.90
21522;DHT22;10922;45.572;10.002;2023-05-24T08:50:29;25.90;99.90
21522;DHT22;10922;45.572;10.002;2023-05-24T08:52:54;26.10;99.90
21522;DHT22;10922;45.572;10.002;2023-05-24T08:55:20;25.50;99.90
21522;DHT22;10922;45.572;10.002;2023-05-24T08:57:46;25.10;99.90
21522;DHT22;10922;45.572;10.002;2023-05-24T09:00:12;25.30;99.90
21522;DHT22;10922;45.572;10.002;2023-05-24T09:02:38;25.80;99.90
21522;DHT22;10922;45.572;10.002;2023-05-24T09:05:04;25.90;99.90
21522;DHT22;10922;45.572;10.002;2023-05-24T09:07:31;25.90;99.90
21522;DHT22;10922;45.572;10.002;2023-05-24T09:09:57;26.00;99.90
21522;DHT22;10922;45.572;10.002;2023-05-24T09:12:25;26.10;99.90
21522;DHT22;10922;45.572;10.002;2023-05-24T09:14:51;26.00;99.90
21522;DHT22;10922;45.572;10.002;2023-05-24T09:17:17;25.90;99.90
21522;DHT22;10922;45.572;10.002;2023-05-24T09:19:44;25.90;99.90
21522;DHT22;10922;45.572;10.002;2023-05-24T09:22:11;26.10;99.90
21522;DHT22;10922;45.572;10.002;2023-05-24T09:24:46;26.40;99.90
21522;DHT22;10922;45.572;10.002;2023-05-24T09:27:13;25.70;99.90
21522;DHT22;10922;45.572;10.002;2023-05-24T09:29:38;26.10;99.90
21522;DHT22;10922;45.572;10.002;2023-05-24T09:32:08;25.80;99.90
21522;DHT22;10922;45.572;10.002;2023-05-24T09:34:38;25.90;99.90
21522;DHT22;10922;45.572;10.002;2023-05-24T09:37:04;26.30;99.90
21522;DHT22;10922;45.572;10.002;2023-05-24T09:39:30;26.50;99.90
21522;DHT22;10922;45.572;10.002;2023-05-24T09:41:56;25.80;99.90
21522;DHT22;10922;45.572;10.002;2023-05-24T09:44:23;25.20;99.90
21522;DHT22;10922;45.572;10.002;2023-05-24T09:46:48;26.00;99.90
21522;DHT22;10922;45.572;10.002;2023-05-24T09:49:14;26.40;99.90
21522;DHT22;10922;45.572;10.002;2023-05-24T09:51:39;26.70;99.90
21522;DHT22;10922;45.572;10.002;2023-05-24T09:54:06;27.00;99.90
21522;DHT22;10922;45.572;10.002;2023-05-24T09:56:33;27.10;99.90
21522;DHT22;10922;45.572;10.002;2023-05-24T09:59:04;27.20;99.90
21522;DHT22;10922;45.572;10.002;2023-05-24T10:01:29;27.00;99.90
21522;DHT22;10922;45.572;10.002;2023-05-24T10:03:57;27.10;99.90
21522;DHT22;10922;45.572;10.002;2023-05-24T10:06:24;27.30;99.90
21522;DHT22;10922;45.572;10.002;2023-05-24T10:08:50;27.40;99.90
21522;DHT22;10922;45.572;10.002;2023-05-24T10:11:16;27.20;99.90
21522;DHT22;10922;45.572;10.002;2023-05-24T10:13:42;27.40;99.90
21522;DHT22;10922;45.572;10.002;2023-05-24T10:16:08;27.00;99.90
21522;DHT22;10922;45.572;10.002;2023-05-24T10:18:33;27.10;99.90
21522;DHT22;10922;45.572;10.002;2023-05-24T10:21:00;27.50;99.90
21522;DHT22;10922;45.572;10.002;2023-05-24T10:23:29;27.40;99.90
21522;DHT22;10922;45.572;10.002;2023-05-24T10:25:55;27.10;99.90
21522;DHT22;10922;45.572;10.002;2023-05-24T10:28:24;27.70;99.90
21522;DHT22;10922;45.572;10.002;2023-05-24T10:33:24;27.50;99.90
21522;DHT22;10922;45.572;10.002;2023-05-24T10:35:51;27.90;99.90
21522;DHT22;10922;45.572;10.002;2023-05-24T10:38:19;28.50;99.90
21522;DHT22;10922;45.572;10.002;2023-05-24T10:40:45;28.80;99.90
21522;DHT22;10922;45.572;10.002;2023-05-24T10:43:10;29.20;99.90
21522;DHT22;10922;45.572;10.002;2023-05-24T10:45:38;28.40;99.90
21522;DHT22;10922;45.572;10.002;2023-05-24T10:48:08;28.40;99.90
21522;DHT22;10922;45.572;10.002;2023-05-24T10:50:34;28.50;99.90
21522;DHT22;10922;45.572;10.002;2023-05-24T11:00:55;28.60;99.90
21522;DHT22;10922;45.572;10.002;2023-05-24T11:03:22;28.50;99.90
21522;DHT22;10922;45.572;10.002;2023-05-24T11:08:30;28.10;99.90
21522;DHT22;10922;45.572;10.002;2023-05-24T11:11:13;28.50;99.90
21522;DHT22;10922;45.572;10.002;2023-05-24T11:13:41;28.80;99.90
21522;DHT22;10922;45.572;10.002;2023-05-24T11:16:07;28.70;99.90
21522;DHT22;10922;45.572;10.002;2023-05-24T11:18:33;28.90;99.90
21522;DHT22;10922;45.572;10.002;2023-05-24T11:21:04;28.80;99.90
21522;DHT22;10922;45.572;10.002;2023-05-24T11:23:30;28.90;99.90
21522;DHT22;10922;45.572;10.002;2023-05-24T11:25:56;28.80;99.90
21522;DHT22;10922;45.572;10.002;2023-05-24T11:28:23;28.90;99.90
21522;DHT22;10922;45.572;10.002;2023-05-24T11:30:49;29.10;99.90
21522;DHT22;10922;45.572;10.002;2023-05-24T11:33:20;29.40;99.90
21522;DHT22;10922;45.572;10.002;2023-05-24T11:35:50;29.70;99.90
21522;DHT22;10922;45.572;10.002;2023-05-24T11:38:17;30.40;99.90
21522;DHT22;10922;45.572;10.002;2023-05-24T11:40:44;30.70;99.90
21522;DHT22;10922;45.572;10.002;2023-05-24T11:43:18;30.00;99.90
21522;DHT22;10922;45.572;10.002;2023-05-24T11:45:49;30.50;99.90
21522;DHT22;10922;45.572;10.002;2023-05-24T11:48:17;30.60;99.90
21522;DHT22;10922;45.572;10.002;2023-05-24T11:50:44;30.20;99.90
21522;DHT22;10922;45.572;10.002;2023-05-24T11:53:15;30.40;99.90
21522;DHT22;10922;45.572;10.002;2023-05-24T11:55:41;30.90;99.90
21522;DHT22;10922;45.572;10.002;2023-05-24T11:58:23;31.30;99.90
21522;DHT22;10922;45.572;10.002;2023-05-24T12:00:50;31.10;99.90
21522;DHT22;10922;45.572;10.002;2023-05-24T12:03:17;31.60;99.90
21522;DHT22;10922;45.572;10.002;2023-05-24T12:05:43;31.50;99.90
21522;DHT22;10922;45.572;10.002;2023-05-24T12:08:11;31.00;99.90
21522;DHT22;10922;45.572;10.002;2023-05-24T12:10:38;31.20;99.90
21522;DHT22;10922;45.572;10.002;2023-05-24T12:13:05;31.60;99.90
21522;DHT22;10922;45.572;10.002;2023-05-24T12:15:34;31.90;99.90
21522;DHT22;10922;45.572;10.002;2023-05-24T12:18:00;31.80;99.90
21522;DHT22;10922;45.572;10.002;2023-05-24T12:20:28;31.80;99.90
21522;DHT22;10922;45.572;10.002;2023-05-24T12:22:55;31.40;99.90
21522;DHT22;10922;45.572;10.002;2023-05-24T12:25:22;30.80;99.90
21522;DHT22;10922;45.572;10.002;2023-05-24T12:27:54;30.70;99.90
21522;DHT22;10922;45.572;10.002;2023-05-24T12:30:25;30.90;99.90
21522;DHT22;10922;45.572;10.002;2023-05-24T12:32:51;31.70;99.90
21522;DHT22;10922;45.572;10.002;2023-05-24T12:35:19;32.40;99.90
21522;DHT22;10922;45.572;10.002;2023-05-24T12:37:45;31.00;99.90
21522;DHT22;10922;45.572;10.002;2023-05-24T12:40:19;32.30;99.90
21522;DHT22;10922;45.572;10.002;2023-05-24T12:42:49;32.70;99.90
21522;DHT22;10922;45.572;10.002;2023-05-24T12:45:16;32.70;99.90
21522;DHT22;10922;45.572;10.002;2023-05-24T12:47:58;33.70;99.90
21522;DHT22;10922;45.572;10.002;2023-05-24T12:50:28;34.90;99.90
21522;DHT22;10922;45.572;10.002;2023-05-24T12:52:55;32.60;99.90
21522;DHT22;10922;45.572;10.002;2023-05-24T12:55:25;32.40;99.90
21522;DHT22;10922;45.572;10.002;2023-05-24T12:57:52;36.20;99.90
21522;DHT22;10922;45.572;10.002;2023-05-24T13:00:20;35.20;99.90
21522;DHT22;10922;45.572;10.002;2023-05-24T13:02:46;33.70;99.90
21522;DHT22;10922;45.572;10.002;2023-05-24T13:05:12;32.70;99.90
21522;DHT22;10922;45.572;10.002;2023-05-24T13:07:38;31.40;99.90
21522;DHT22;10922;45.572;10.002;2023-05-24T13:10:05;33.50;99.90
21522;DHT22;10922;45.572;10.002;2023-05-24T13:12:31;38.20;99.90
21522;DHT22;10922;45.572;10.002;2023-05-24T13:14:57;40.50;99.90
21522;DHT22;10922;45.572;10.002;2023-05-24T13:17:23;41.50;99.90
21522;DHT22;10922;45.572;10.002;2023-05-24T13:19:49;39.40;99.90
21522;DHT22;10922;45.572;10.002;2023-05-24T13:22:15;37.30;99.90
21522;DHT22;10922;45.572;10.002;2023-05-24T13:24:40;40.60;99.90
21522;DHT22;10922;45.572;10.002;2023-05-24T13:27:07;39.30;99.90
21522;DHT22;10922;45.572;10.002;2023-05-24T13:29:33;41.20;99.90
21522;DHT22;10922;45.572;10.002;2023-05-24T13:31:58;39.20;99.90
21522;DHT22;10922;45.572;10.002;2023-05-24T13:34:24;36.70;99.90
21522;DHT22;10922;45.572;10.002;2023-05-24T13:36:50;36.50;99.90
21522;DHT22;10922;45.572;10.002;2023-05-24T13:39:17;39.10;99.90
21522;DHT22;10922;45.572;10.002;2023-05-24T13:41:44;42.00;99.90
21522;DHT22;10922;45.572;10.002;2023-05-24T13:44:13;42.70;99.90
21522;DHT22;10922;45.572;10.002;2023-05-24T13:46:39;43.80;99.90
21522;DHT22;10922;45.572;10.002;2023-05-24T13:49:06;44.70;99.90
21522;DHT22;10922;45.572;10.002;2023-05-24T13:51:32;42.60;99.90
21522;DHT22;10922;45.572;10.002;2023-05-24T13:53:58;41.30;99.90
21522;DHT22;10922;45.572;10.002;2023-05-24T13:56:24;41.10;99.90
21522;DHT22;10922;45.572;10.002;2023-05-24T13:58:52;38.00;99.90
21522;DHT22;10922;45.572;10.002;2023-05-24T14:01:18;38.00;99.90
21522;DHT22;10922;45.572;10.002;2023-05-24T14:03:44;38.10;99.90
21522;DHT22;10922;45.572;10.002;2023-05-24T14:06:10;40.40;99.90
21522;DHT22;10922;45.572;10.002;2023-05-24T14:08:36;39.30;99.90
21522;DHT22;10922;45.572;10.002;2023-05-24T14:11:01;36.70;99.90
21522;DHT22;10922;45.572;10.002;2023-05-24T14:13:27;38.30;99.90
21522;DHT22;10922;45.572;10.002;2023-05-24T14:15:52;36.50;99.90
21522;DHT22;10922;45.572;10.002;2023-05-24T14:18:18;34.10;99.90
21522;DHT22;10922;45.572;10.002;2023-05-24T14:20:43;33.40;99.90
21522;DHT22;10922;45.572;10.002;2023-05-24T14:23:09;32.10;99.90
21522;DHT22;10922;45.572;10.002;2023-05-24T14:25:35;32.10;99.90
21522;DHT22;10922;45.572;10.002;2023-05-24T14:28:01;33.50;99.90
21522;DHT22;10922;45.572;10.002;2023-05-24T14:30:30;37.50;99.90
21522;DHT22;10922;45.572;10.002;2023-05-24T14:32:56;41.30;99.90
21522;DHT22;10922;45.572;10.002;2023-05-24T14:35:22;42.90;99.90
21522;DHT22;10922;45.572;10.002;2023-05-24T14:37:48;44.30;99.90
21522;DHT22;10922;45.572;10.002;2023-05-24T14:40:14;41.40;99.90
21522;DHT22;10922;45.572;10.002;2023-05-24T14:42:39;38.70;99.90
21522;DHT22;10922;45.572;10.002;2023-05-24T14:45:05;33.60;99.90
21522;DHT22;10922;45.572;10.002;2023-05-24T14:47:31;31.50;99.90
21522;DHT22;10922;45.572;10.002;2023-05-24T14:49:56;29.50;99.90
21522;DHT22;10922;45.572;10.002;2023-05-24T14:52:22;27.80;99.90
21522;DHT22;10922;45.572;10.002;2023-05-24T14:54:47;27.20;99.90
21522;DHT22;10922;45.572;10.002;2023-05-24T14:57:13;25.90;99.90
21522;DHT22;10922;45.572;10.002;2023-05-24T14:59:38;25.40;99.90
21522;DHT22;10922;45.572;10.002;2023-05-24T15:02:04;24.90;99.90
21522;DHT22;10922;45.572;10.002;2023-05-24T15:04:29;24.40;99.90
21522;DHT22;10922;45.572;10.002;2023-05-24T15:06:55;24.00;99.90
21522;DHT22;10922;45.572;10.002;2023-05-24T15:09:20;23.30;99.90
21522;DHT22;10922;45.572;10.002;2023-05-24T15:11:46;22.80;99.90
21522;DHT22;10922;45.572;10.002;2023-05-24T15:14:12;22.60;99.90
21522;DHT22;10922;45.572;10.002;2023-05-24T15:16:37;22.50;99.90
21522;DHT22;10922;45.572;10.002;2023-05-24T15:19:04;22.60;99.90
21522;DHT22;10922;45.572;10.002;2023-05-24T15:21:29;22.20;99.90
21522;DHT22;10922;45.572;10.002;2023-05-24T15:23:55;22.10;99.90
21522;DHT22;10922;45.572;10.002;2023-05-24T15:26:20;22.00;99.90
21522;DHT22;10922;45.572;10.002;2023-05-24T15:28:46;21.70;99.90
21522;DHT22;10922;45.572;10.002;2023-05-24T15:31:12;21.40;99.90
21522;DHT22;10922;45.572;10.002;2023-05-24T15:33:38;21.00;99.90